sensor_id;sensor_type;location;lat;lon;timestamp;temperature;humidity
61016;DHT22;46902;52.920;6.536;2022-10-16T00:01:21;12.60;99.90
61016;DHT22;46902;52.920;6.536;2022-10-16T00:03:48;12.60;99.90
61016;DHT22;46902;52.920;6.536;2022-10-16T00:06:16;12.60;99.90
61016;DHT22;46902;52.920;6.536;2022-10-16T00:08:42;12.60;99.90
61016;DHT22;46902;52.920;6.536;2022-10-16T00:11:22;12.70;99.90
61016;DHT22;46902;52.920;6.536;2022-10-16T00:13:50;12.70;99.90
61016;DHT22;46902;52.920;6.536;2022-10-16T00:16:17;12.70;99.90
61016;DHT22;46902;52.920;6.536;2022-10-16T00:18:43;12.70;99.90
61016;DHT22;46902;52.920;6.536;2022-10-16T00:21:10;12.70;99.90
61016;DHT22;46902;52.920;6.536;2022-10-16T00:23:36;12.70;99.90
61016;DHT22;46902;52.920;6.536;2022-10-16T00:26:05;12.70;99.90
61016;DHT22;46902;52.920;6.536;2022-10-16T00:28:31;12.70;99.90
61016;DHT22;46902;52.920;6.536;2022-10-16T00:30:57;12.70;99.90
61016;DHT22;46902;52.920;6.536;2022-10-16T00:33:23;12.70;99.90
61016;DHT22;46902;52.920;6.536;2022-10-16T00:35:48;12.70;99.90
61016;DHT22;46902;52.920;6.536;2022-10-16T00:38:14;12.70;99.90
61016;DHT22;46902;52.920;6.536;2022-10-16T00:40:40;12.70;99.90
61016;DHT22;46902;52.920;6.536;2022-10-16T00:43:37;12.70;99.90
61016;DHT22;46902;52.920;6.536;2022-10-16T00:46:09;12.70;99.90
61016;DHT22;46902;52.920;6.536;2022-10-16T00:48:36;12.70;99.90
61016;DHT22;46902;52.920;6.536;2022-10-16T00:51:02;12.70;99.90
61016;DHT22;46902;52.920;6.536;2022-10-16T00:53:28;12.70;99.90
61016;DHT22;46902;52.920;6.536;2022-10-16T00:55:54;12.70;99.90
61016;DHT22;46902;52.920;6.536;2022-10-16T00:58:20;12.70;99.90
61016;DHT22;46902;52.920;6.536;2022-10-16T01:00:45;12.70;99.90
61016;DHT22;46902;52.920;6.536;2022-10-16T01:03:32;12.70;99.90
61016;DHT22;46902;52.920;6.536;2022-10-16T01:08:44;12.70;99.90
61016;DHT22;46902;52.920;6.536;2022-10-16T01:11:33;12.70;99.90
61016;DHT22;46902;52.920;6.536;2022-10-16T01:14:15;12.70;99.90
61016;DHT22;46902;52.920;6.536;2022-10-16T01:16:53;12.70;99.90
61016;DHT22;46902;52.920;6.536;2022-10-16T01:19:41;12.70;99.90
61016;DHT22;46902;52.920;6.536;2022-10-16T01:22:09;12.70;99.90
61016;DHT22;46902;52.920;6.536;2022-10-16T01:24:40;12.70;99.90
61016;DHT22;46902;52.920;6.536;2022-10-16T01:27:19;12.70;99.90
61016;DHT22;46902;52.920;6.536;2022-10-16T01:32:39;12.70;99.90
61016;DHT22;46902;52.920;6.536;2022-10-16T01:35:12;12.80;99.90
61016;DHT22;46902;52.920;6.536;2022-10-16T01:40:18;12.80;99.90
61016;DHT22;46902;52.920;6.536;2022-10-16T01:43:00;12.80;99.90
61016;DHT22;46902;52.920;6.536;2022-10-16T01:45:28;12.80;99.90
61016;DHT22;46902;52.920;6.536;2022-10-16T01:47:55;12.80;99.90
61016;DHT22;46902;52.920;6.536;2022-10-16T01:50:21;12.80;99.90
61016;DHT22;46902;52.920;6.536;2022-10-16T01:52:51;12.90;99.90
61016;DHT22;46902;52.920;6.536;2022-10-16T01:55:26;12.90;99.90
61016;DHT22;46902;52.920;6.536;2022-10-16T01:57:55;12.90;99.90
61016;DHT22;46902;52.920;6.536;2022-10-16T02:00:21;12.80;99.90
61016;DHT22;46902;52.920;6.536;2022-10-16T02:02:49;12.90;99.90
61016;DHT22;46902;52.920;6.536;2022-10-16T02:05:34;12.90;99.90
61016;DHT22;46902;52.920;6.536;2022-10-16T02:08:03;12.90;99.90
61016;DHT22;46902;52.920;6.536;2022-10-16T02:10:29;12.80;99.90
61016;DHT22;46902;52.920;6.536;2022-10-16T02:13:39;12.80;99.90
61016;DHT22;46902;52.920;6.536;2022-10-16T02:16:08;12.90;99.90
61016;DHT22;46902;52.920;6.536;2022-10-16T02:18:34;12.80;99.90
61016;DHT22;46902;52.920;6.536;2022-10-16T02:21:09;12.80;99.90
61016;DHT22;46902;52.920;6.536;2022-10-16T02:23:49;12.90;99.90
61016;DHT22;46902;52.920;6.536;2022-10-16T02:26:21;12.90;99.90
61016;DHT22;46902;52.920;6.536;2022-10-16T02:28:54;12.90;99.90
61016;DHT22;46902;52.920;6.536;2022-10-16T02:31:26;12.90;99.90
61016;DHT22;46902;52.920;6.536;2022-10-16T02:33:55;12.90;99.90
61016;DHT22;46902;52.920;6.536;2022-10-16T02:36:21;12.90;99.90
61016;DHT22;46902;52.920;6.536;2022-10-16T02:38:47;12.90;99.90
61016;DHT22;46902;52.920;6.536;2022-10-16T02:41:14;12.90;99.90
61016;DHT22;46902;52.920;6.536;2022-10-16T02:43:40;12.90;99.90
61016;DHT22;46902;52.920;6.536;2022-10-16T02:46:05;12.90;99.90
61016;DHT22;46902;52.920;6.536;2022-10-16T02:48:31;12.90;99.90
61016;DHT22;46902;52.920;6.536;2022-10-16T02:50:57;12.90;99.90
61016;DHT22;46902;52.920;6.536;2022-10-16T02:53:22;12.90;99.90
61016;DHT22;46902;52.920;6.536;2022-10-16T02:55:48;12.90;99.90
61016;DHT22;46902;52.920;6.536;2022-10-16T02:58:14;12.90;99.90
61016;DHT22;46902;52.920;6.536;2022-10-16T03:00:39;12.90;99.90
61016;DHT22;46902;52.920;6.536;2022-10-16T03:03:05;12.90;99.90
61016;DHT22;46902;52.920;6.536;2022-10-16T03:05:30;12.90;99.90
61016;DHT22;46902;52.920;6.536;2022-10-16T03:07:56;12.90;99.90
61016;DHT22;46902;52.920;6.536;2022-10-16T03:10:21;12.90;99.90
61016;DHT22;46902;52.920;6.536;2022-10-16T03:12:47;12.90;99.90
61016;DHT22;46902;52.920;6.536;2022-10-16T03:15:12;12.90;99.90
61016;DHT22;46902;52.920;6.536;2022-10-16T03:17:38;12.80;99.90
61016;DHT22;46902;52.920;6.536;2022-10-16T03:20:04;12.90;99.90
61016;DHT22;46902;52.920;6.536;2022-10-16T03:22:29;12.90;99.90
61016;DHT22;46902;52.920;6.536;2022-10-16T03:24:55;12.90;99.90
61016;DHT22;46902;52.920;6.536;2022-10-16T03:27:20;12.90;99.90
61016;DHT22;46902;52.920;6.536;2022-10-16T03:29:46;12.90;99.90
61016;DHT22;46902;52.920;6.536;2022-10-16T03:32:12;12.90;99.90
61016;DHT22;46902;52.920;6.536;2022-10-16T03:34:37;12.80;99.90
61016;DHT22;46902;52.920;6.536;2022-10-16T03:37:03;12.80;99.90
61016;DHT22;46902;52.920;6.536;2022-10-16T03:39:29;12.90;99.90
61016;DHT22;46902;52.920;6.536;2022-10-16T03:41:54;12.90;99.90
61016;DHT22;46902;52.920;6.536;2022-10-16T03:44:20;12.80;99.90
61016;DHT22;46902;52.920;6.536;2022-10-16T03:46:45;12.90;99.90
61016;DHT22;46902;52.920;6.536;2022-10-16T03:49:11;12.90;99.90
61016;DHT22;46902;52.920;6.536;2022-10-16T03:51:37;12.90;99.90
61016;DHT22;46902;52.920;6.536;2022-10-16T03:54:02;12.90;99.90
61016;DHT22;46902;52.920;6.536;2022-10-16T03:56:28;12.80;99.90
61016;DHT22;46902;52.920;6.536;2022-10-16T03:58:53;12.80;99.90
61016;DHT22;46902;52.920;6.536;2022-10-16T04:01:19;12.80;99.90
61016;DHT22;46902;52.920;6.536;2022-10-16T04:03:45;12.80;99.90
61016;DHT22;46902;52.920;6.536;2022-10-16T04:06:10;12.80;99.90
61016;DHT22;46902;52.920;6.536;2022-10-16T04:08:36;12.70;99.90
61016;DHT22;46902;52.920;6.536;2022-10-16T04:11:03;12.70;99.90
61016;DHT22;46902;52.920;6.536;2022-10-16T04:13:29;12.70;99.90
61016;DHT22;46902;52.920;6.536;2022-10-16T04:15:54;12.70;99.90
61016;DHT22;46902;52.920;6.536;2022-10-16T04:18:20;12.70;99.90
61016;DHT22;46902;52.920;6.536;2022-10-16T04:20:45;12.60;99.90
61016;DHT22;46902;52.920;6.536;2022-10-16T04:23:11;12.70;99.90
61016;DHT22;46902;52.920;6.536;2022-10-16T04:25:37;12.70;99.90
61016;DHT22;46902;52.920;6.536;2022-10-16T04:28:02;12.70;99.90
61016;DHT22;46902;52.920;6.536;2022-10-16T04:30:28;12.70;99.90
61016;DHT22;46902;52.920;6.536;2022-10-16T04:32:53;12.60;99.90
61016;DHT22;46902;52.920;6.536;2022-10-16T04:35:20;12.60;99.90
61016;DHT22;46902;52.920;6.536;2022-10-16T04:37:46;12.60;99.90
61016;DHT22;46902;52.920;6.536;2022-10-16T04:40:12;12.60;99.90
61016;DHT22;46902;52.920;6.536;2022-10-16T04:42:38;12.50;99.90
61016;DHT22;46902;52.920;6.536;2022-10-16T04:45:05;12.60;99.90
61016;DHT22;46902;52.920;6.536;2022-10-16T04:47:31;12.50;99.90
61016;DHT22;46902;52.920;6.536;2022-10-16T04:49:57;12.50;99.90
61016;DHT22;46902;52.920;6.536;2022-10-16T04:52:22;12.60;99.90
61016;DHT22;46902;52.920;6.536;2022-10-16T04:54:50;12.60;99.90
61016;DHT22;46902;52.920;6.536;2022-10-16T04:57:16;12.60;99.90
61016;DHT22;46902;52.920;6.536;2022-10-16T04:59:42;12.60;99.90
61016;DHT22;46902;52.920;6.536;2022-10-16T05:02:07;12.60;99.90
61016;DHT22;46902;52.920;6.536;2022-10-16T05:04:33;12.60;99.90
61016;DHT22;46902;52.920;6.536;2022-10-16T05:06:58;12.70;99.90
61016;DHT22;46902;52.920;6.536;2022-10-16T05:09:24;12.70;99.90
61016;DHT22;46902;52.920;6.536;2022-10-16T05:11:50;12.70;99.90
61016;DHT22;46902;52.920;6.536;2022-10-16T05:14:15;12.70;99.90
61016;DHT22;46902;52.920;6.536;2022-10-16T05:16:41;12.70;99.90
61016;DHT22;46902;52.920;6.536;2022-10-16T05:19:06;12.70;99.90
61016;DHT22;46902;52.920;6.536;2022-10-16T05:21:32;12.70;99.90
61016;DHT22;46902;52.920;6.536;2022-10-16T05:23:57;12.70;99.90
61016;DHT22;46902;52.920;6.536;2022-10-16T05:26:23;12.70;99.90
61016;DHT22;46902;52.920;6.536;2022-10-16T05:28:49;12.70;99.90
61016;DHT22;46902;52.920;6.536;2022-10-16T05:31:15;12.70;99.90
61016;DHT22;46902;52.920;6.536;2022-10-16T05:33:41;12.70;99.90
61016;DHT22;46902;52.920;6.536;2022-10-16T05:36:08;12.70;99.90
61016;DHT22;46902;52.920;6.536;2022-10-16T05:38:35;12.70;99.90
61016;DHT22;46902;52.920;6.536;2022-10-16T05:41:01;12.70;99.90
61016;DHT22;46902;52.920;6.536;2022-10-16T05:43:30;12.80;99.90
61016;DHT22;46902;52.920;6.536;2022-10-16T05:45:58;12.80;99.90
61016;DHT22;46902;52.920;6.536;2022-10-16T05:48:24;12.80;99.90
61016;DHT22;46902;52.920;6.536;2022-10-16T05:51:03;12.80;99.90
61016;DHT22;46902;52.920;6.536;2022-10-16T05:53:32;12.80;99.90
61016;DHT22;46902;52.920;6.536;2022-10-16T05:55:57;12.80;99.90
61016;DHT22;46902;52.920;6.536;2022-10-16T05:58:24;12.80;99.90
61016;DHT22;46902;52.920;6.536;2022-10-16T06:00:57;12.80;99.90
61016;DHT22;46902;52.920;6.536;2022-10-16T06:03:23;12.80;99.90
61016;DHT22;46902;52.920;6.536;2022-10-16T06:05:49;12.80;99.90
61016;DHT22;46902;52.920;6.536;2022-10-16T06:08:15;12.80;99.90
61016;DHT22;46902;52.920;6.536;2022-10-16T06:10:41;12.80;99.90
61016;DHT22;46902;52.920;6.536;2022-10-16T06:13:06;12.80;99.90
61016;DHT22;46902;52.920;6.536;2022-10-16T06:15:32;12.80;99.90
61016;DHT22;46902;52.920;6.536;2022-10-16T06:17:57;12.80;99.90
61016;DHT22;46902;52.920;6.536;2022-10-16T06:20:23;12.80;99.90
61016;DHT22;46902;52.920;6.536;2022-10-16T06:22:48;12.80;99.90
61016;DHT22;46902;52.920;6.536;2022-10-16T06:25:14;12.70;99.90
61016;DHT22;46902;52.920;6.536;2022-10-16T06:27:40;12.80;99.90
61016;DHT22;46902;52.920;6.536;2022-10-16T06:30:06;12.80;99.90
61016;DHT22;46902;52.920;6.536;2022-10-16T06:32:32;12.70;99.90
61016;DHT22;46902;52.920;6.536;2022-10-16T06:34:58;12.80;99.90
61016;DHT22;46902;52.920;6.536;2022-10-16T06:37:23;12.80;99.90
61016;DHT22;46902;52.920;6.536;2022-10-16T06:39:50;12.80;99.90
61016;DHT22;46902;52.920;6.536;2022-10-16T06:42:17;12.80;99.90
61016;DHT22;46902;52.920;6.536;2022-10-16T06:44:43;12.80;99.90
61016;DHT22;46902;52.920;6.536;2022-10-16T06:47:09;12.80;99.90
61016;DHT22;46902;52.920;6.536;2022-10-16T06:49:34;12.80;99.90
61016;DHT22;46902;52.920;6.536;2022-10-16T06:52:00;12.90;99.90
61016;DHT22;46902;52.920;6.536;2022-10-16T06:54:27;12.90;99.90
61016;DHT22;46902;52.920;6.536;2022-10-16T06:56:53;12.90;99.90
61016;DHT22;46902;52.920;6.536;2022-10-16T06:59:20;12.80;99.90
61016;DHT22;46902;52.920;6.536;2022-10-16T07:01:46;12.90;99.90
61016;DHT22;46902;52.920;6.536;2022-10-16T07:04:11;12.90;99.90
61016;DHT22;46902;52.920;6.536;2022-10-16T07:06:37;12.90;99.90
61016;DHT22;46902;52.920;6.536;2022-10-16T07:09:05;13.00;99.90
61016;DHT22;46902;52.920;6.536;2022-10-16T07:11:31;13.00;99.90
61016;DHT22;46902;52.920;6.536;2022-10-16T07:13:57;13.00;99.90
61016;DHT22;46902;52.920;6.536;2022-10-16T07:16:25;13.00;99.90
61016;DHT22;46902;52.920;6.536;2022-10-16T07:18:51;13.00;99.90
61016;DHT22;46902;52.920;6.536;2022-10-16T07:21:23;13.10;99.90
61016;DHT22;46902;52.920;6.536;2022-10-16T07:23:55;13.10;99.90
61016;DHT22;46902;52.920;6.536;2022-10-16T07:26:22;13.10;99.90
61016;DHT22;46902;52.920;6.536;2022-10-16T07:28:49;13.20;99.90
61016;DHT22;46902;52.920;6.536;2022-10-16T07:31:15;13.20;99.90
61016;DHT22;46902;52.920;6.536;2022-10-16T07:33:42;13.20;99.90
61016;DHT22;46902;52.920;6.536;2022-10-16T07:36:10;13.20;99.90
61016;DHT22;46902;52.920;6.536;2022-10-16T07:38:36;13.20;99.90
61016;DHT22;46902;52.920;6.536;2022-10-16T07:41:07;13.20;99.90
61016;DHT22;46902;52.920;6.536;2022-10-16T07:43:33;13.30;99.90
61016;DHT22;46902;52.920;6.536;2022-10-16T07:45:59;13.30;99.90
61016;DHT22;46902;52.920;6.536;2022-10-16T07:48:28;13.30;99.90
61016;DHT22;46902;52.920;6.536;2022-10-16T07:50:59;13.30;99.90
61016;DHT22;46902;52.920;6.536;2022-10-16T07:53:24;13.40;99.90
61016;DHT22;46902;52.920;6.536;2022-10-16T07:55:50;13.40;99.90
61016;DHT22;46902;52.920;6.536;2022-10-16T07:58:15;13.40;99.90
61016;DHT22;46902;52.920;6.536;2022-10-16T08:00:41;13.40;99.90
61016;DHT22;46902;52.920;6.536;2022-10-16T08:03:08;13.50;99.90
61016;DHT22;46902;52.920;6.536;2022-10-16T08:05:33;13.50;99.90
61016;DHT22;46902;52.920;6.536;2022-10-16T08:08:00;13.60;99.90
61016;DHT22;46902;52.920;6.536;2022-10-16T08:10:27;13.60;99.90
61016;DHT22;46902;52.920;6.536;2022-10-16T08:12:53;13.70;99.90
61016;DHT22;46902;52.920;6.536;2022-10-16T08:15:19;13.80;99.90
61016;DHT22;46902;52.920;6.536;2022-10-16T08:17:53;13.90;99.90
61016;DHT22;46902;52.920;6.536;2022-10-16T08:20:19;13.90;99.90
61016;DHT22;46902;52.920;6.536;2022-10-16T08:22:44;14.00;99.90
61016;DHT22;46902;52.920;6.536;2022-10-16T08:25:10;14.00;99.90
61016;DHT22;46902;52.920;6.536;2022-10-16T08:27:35;14.10;99.90
61016;DHT22;46902;52.920;6.536;2022-10-16T08:30:01;14.20;99.90
61016;DHT22;46902;52.920;6.536;2022-10-16T08:32:26;14.30;99.90
61016;DHT22;46902;52.920;6.536;2022-10-16T08:34:52;14.70;99.90
61016;DHT22;46902;52.920;6.536;2022-10-16T08:37:17;15.30;99.90
61016;DHT22;46902;52.920;6.536;2022-10-16T08:39:43;15.70;99.90
61016;DHT22;46902;52.920;6.536;2022-10-16T08:42:50;15.90;99.90
61016;DHT22;46902;52.920;6.536;2022-10-16T08:45:28;15.80;99.90
61016;DHT22;46902;52.920;6.536;2022-10-16T08:50:37;16.30;99.90
61016;DHT22;46902;52.920;6.536;2022-10-16T08:53:04;17.10;99.90
61016;DHT22;46902;52.920;6.536;2022-10-16T08:55:38;17.20;99.90
61016;DHT22;46902;52.920;6.536;2022-10-16T08:58:30;17.00;99.90
61016;DHT22;46902;52.920;6.536;2022-10-16T09:01:01;17.20;99.90
61016;DHT22;46902;52.920;6.536;2022-10-16T09:03:40;17.50;99.90
61016;DHT22;46902;52.920;6.536;2022-10-16T09:17:11;21.60;99.90
61016;DHT22;46902;52.920;6.536;2022-10-16T09:19:49;22.20;99.90
61016;DHT22;46902;52.920;6.536;2022-10-16T09:22:17;22.50;99.90
61016;DHT22;46902;52.920;6.536;2022-10-16T09:24:43;22.80;99.70
61016;DHT22;46902;52.920;6.536;2022-10-16T09:27:13;22.90;97.90
61016;DHT22;46902;52.920;6.536;2022-10-16T09:29:39;23.10;96.80
61016;DHT22;46902;52.920;6.536;2022-10-16T09:32:18;23.40;95.90
61016;DHT22;46902;52.920;6.536;2022-10-16T09:34:50;23.60;94.20
61016;DHT22;46902;52.920;6.536;2022-10-16T09:37:19;23.80;93.10
61016;DHT22;46902;52.920;6.536;2022-10-16T09:39:52;24.00;92.00
61016;DHT22;46902;52.920;6.536;2022-10-16T09:42:33;24.10;91.00
61016;DHT22;46902;52.920;6.536;2022-10-16T09:45:00;24.00;90.80
61016;DHT22;46902;52.920;6.536;2022-10-16T09:47:28;24.20;89.90
61016;DHT22;46902;52.920;6.536;2022-10-16T09:50:13;24.40;89.20
61016;DHT22;46902;52.920;6.536;2022-10-16T09:52:44;24.50;87.30
61016;DHT22;46902;52.920;6.536;2022-10-16T09:55:16;24.70;86.00
61016;DHT22;46902;52.920;6.536;2022-10-16T09:57:52;24.70;85.30
61016;DHT22;46902;52.920;6.536;2022-10-16T10:00:18;24.60;85.40
61016;DHT22;46902;52.920;6.536;2022-10-16T10:02:45;24.10;86.30
61016;DHT22;46902;52.920;6.536;2022-10-16T10:05:22;23.90;87.00
61016;DHT22;46902;52.920;6.536;2022-10-16T10:07:55;22.90;86.80
61016;DHT22;46902;52.920;6.536;2022-10-16T10:10:27;21.80;90.40
61016;DHT22;46902;52.920;6.536;2022-10-16T10:12:54;21.10;92.60
61016;DHT22;46902;52.920;6.536;2022-10-16T10:15:20;20.70;94.10
61016;DHT22;46902;52.920;6.536;2022-10-16T10:17:54;20.40;94.40
61016;DHT22;46902;52.920;6.536;2022-10-16T10:20:26;20.50;94.90
61016;DHT22;46902;52.920;6.536;2022-10-16T10:22:53;21.00;94.10
61016;DHT22;46902;52.920;6.536;2022-10-16T10:25:36;21.60;92.70
61016;DHT22;46902;52.920;6.536;2022-10-16T10:28:09;21.30;92.50
61016;DHT22;46902;52.920;6.536;2022-10-16T10:36:27;21.30;92.20
61016;DHT22;46902;52.920;6.536;2022-10-16T10:39:16;21.20;92.80
61016;DHT22;46902;52.920;6.536;2022-10-16T10:42:08;21.50;93.00
61016;DHT22;46902;52.920;6.536;2022-10-16T10:44:57;21.60;92.00
61016;DHT22;46902;52.920;6.536;2022-10-16T10:51:03;21.00;92.60
61016;DHT22;46902;52.920;6.536;2022-10-16T10:53:25;20.40;93.00
61016;DHT22;46902;52.920;6.536;2022-10-16T10:56:07;20.00;93.20
61016;DHT22;46902;52.920;6.536;2022-10-16T11:02:03;20.90;93.50
61016;DHT22;46902;52.920;6.536;2022-10-16T11:07:30;22.00;92.10
61016;DHT22;46902;52.920;6.536;2022-10-16T11:10:03;22.30;91.30
61016;DHT22;46902;52.920;6.536;2022-10-16T11:12:34;21.90;91.10
61016;DHT22;46902;52.920;6.536;2022-10-16T11:15:15;21.00;91.70
61016;DHT22;46902;52.920;6.536;2022-10-16T11:17:46;20.60;92.30
61016;DHT22;46902;52.920;6.536;2022-10-16T11:20:21;20.40;92.80
61016;DHT22;46902;52.920;6.536;2022-10-16T11:22:55;20.30;92.90
61016;DHT22;46902;52.920;6.536;2022-10-16T11:25:27;20.00;93.80
61016;DHT22;46902;52.920;6.536;2022-10-16T11:28:15;19.80;93.60
61016;DHT22;46902;52.920;6.536;2022-10-16T11:31:02;19.90;91.10
61016;DHT22;46902;52.920;6.536;2022-10-16T11:36:11;21.60;89.40
61016;DHT22;46902;52.920;6.536;2022-10-16T11:38:43;22.40;86.20
61016;DHT22;46902;52.920;6.536;2022-10-16T11:41:34;22.70;84.20
61016;DHT22;46902;52.920;6.536;2022-10-16T11:47:13;22.40;82.40
61016;DHT22;46902;52.920;6.536;2022-10-16T11:49:42;22.20;82.20
61016;DHT22;46902;52.920;6.536;2022-10-16T11:54:52;21.50;85.20
61016;DHT22;46902;52.920;6.536;2022-10-16T11:57:32;21.90;86.40
61016;DHT22;46902;52.920;6.536;2022-10-16T12:00:06;22.40;85.20
61016;DHT22;46902;52.920;6.536;2022-10-16T12:08:14;23.00;80.70
61016;DHT22;46902;52.920;6.536;2022-10-16T12:10:45;23.00;78.20
61016;DHT22;46902;52.920;6.536;2022-10-16T12:13:31;23.00;78.70
61016;DHT22;46902;52.920;6.536;2022-10-16T12:18:40;23.20;76.70
61016;DHT22;46902;52.920;6.536;2022-10-16T12:21:06;23.20;76.10
61016;DHT22;46902;52.920;6.536;2022-10-16T12:23:54;23.20;75.40
61016;DHT22;46902;52.920;6.536;2022-10-16T12:26:28;23.30;75.70
61016;DHT22;46902;52.920;6.536;2022-10-16T12:28:55;23.20;74.30
61016;DHT22;46902;52.920;6.536;2022-10-16T12:31:23;23.10;74.80
61016;DHT22;46902;52.920;6.536;2022-10-16T12:36:31;23.00;73.00
61016;DHT22;46902;52.920;6.536;2022-10-16T12:38:57;23.00;72.80
61016;DHT22;46902;52.920;6.536;2022-10-16T12:41:32;22.80;73.30
61016;DHT22;46902;52.920;6.536;2022-10-16T12:43:58;22.80;71.50
61016;DHT22;46902;52.920;6.536;2022-10-16T12:49:20;23.30;69.80
61016;DHT22;46902;52.920;6.536;2022-10-16T12:51:47;23.40;70.00
61016;DHT22;46902;52.920;6.536;2022-10-16T12:54:18;23.40;69.20
61016;DHT22;46902;52.920;6.536;2022-10-16T12:59:41;23.60;65.60
61016;DHT22;46902;52.920;6.536;2022-10-16T13:05:34;23.20;64.80
61016;DHT22;46902;52.920;6.536;2022-10-16T13:10:40;23.00;65.50
61016;DHT22;46902;52.920;6.536;2022-10-16T13:13:12;22.80;67.00
61016;DHT22;46902;52.920;6.536;2022-10-16T13:18:55;22.90;66.30
61016;DHT22;46902;52.920;6.536;2022-10-16T13:27:01;23.30;65.20
61016;DHT22;46902;52.920;6.536;2022-10-16T13:29:32;23.30;64.20
61016;DHT22;46902;52.920;6.536;2022-10-16T13:31:59;23.10;65.00
61016;DHT22;46902;52.920;6.536;2022-10-16T13:34:26;22.60;65.40
61016;DHT22;46902;52.920;6.536;2022-10-16T13:36:52;22.50;66.70
61016;DHT22;46902;52.920;6.536;2022-10-16T13:39:27;22.40;67.00
61016;DHT22;46902;52.920;6.536;2022-10-16T13:42:05;22.40;67.60
61016;DHT22;46902;52.920;6.536;2022-10-16T13:44:39;22.40;67.10
61016;DHT22;46902;52.920;6.536;2022-10-16T13:47:10;22.10;67.90
61016;DHT22;46902;52.920;6.536;2022-10-16T13:49:40;21.90;69.70
61016;DHT22;46902;52.920;6.536;2022-10-16T13:52:05;21.80;69.60
61016;DHT22;46902;52.920;6.536;2022-10-16T13:54:31;21.90;70.50
61016;DHT22;46902;52.920;6.536;2022-10-16T13:57:04;21.80;70.30
61016;DHT22;46902;52.920;6.536;2022-10-16T13:59:35;21.90;69.60
61016;DHT22;46902;52.920;6.536;2022-10-16T14:02:08;21.90;69.90
61016;DHT22;46902;52.920;6.536;2022-10-16T14:04:40;22.00;70.40
61016;DHT22;46902;52.920;6.536;2022-10-16T14:07:13;22.00;70.90
61016;DHT22;46902;52.920;6.536;2022-10-16T14:09:40;22.10;70.90
61016;DHT22;46902;52.920;6.536;2022-10-16T14:12:11;22.10;71.70
61016;DHT22;46902;52.920;6.536;2022-10-16T14:14:52;22.00;71.10
61016;DHT22;46902;52.920;6.536;2022-10-16T14:17:27;21.70;71.80
61016;DHT22;46902;52.920;6.536;2022-10-16T14:19:56;21.40;71.30
61016;DHT22;46902;52.920;6.536;2022-10-16T14:27:56;20.80;74.40
61016;DHT22;46902;52.920;6.536;2022-10-16T14:30:22;20.50;74.70
61016;DHT22;46902;52.920;6.536;2022-10-16T14:33:02;20.30;76.00
61016;DHT22;46902;52.920;6.536;2022-10-16T14:35:37;20.20;77.10
61016;DHT22;46902;52.920;6.536;2022-10-16T14:38:05;20.10;78.20
61016;DHT22;46902;52.920;6.536;2022-10-16T14:40:47;19.90;79.30
61016;DHT22;46902;52.920;6.536;2022-10-16T14:43:29;19.80;80.00
61016;DHT22;46902;52.920;6.536;2022-10-16T14:45:57;19.70;80.20
61016;DHT22;46902;52.920;6.536;2022-10-16T14:48:23;19.50;81.40
61016;DHT22;46902;52.920;6.536;2022-10-16T14:50:49;19.40;81.60
61016;DHT22;46902;52.920;6.536;2022-10-16T14:53:15;19.40;82.40
61016;DHT22;46902;52.920;6.536;2022-10-16T14:55:41;19.30;83.30
61016;DHT22;46902;52.920;6.536;2022-10-16T14:58:21;19.20;84.30
61016;DHT22;46902;52.920;6.536;2022-10-16T15:00:48;19.10;83.60
61016;DHT22;46902;52.920;6.536;2022-10-16T15:03:14;19.10;85.30
61016;DHT22;46902;52.920;6.536;2022-10-16T15:05:40;19.00;85.80
61016;DHT22;46902;52.920;6.536;2022-10-16T15:08:06;18.90;85.90
61016;DHT22;46902;52.920;6.536;2022-10-16T15:10:38;18.90;87.20
61016;DHT22;46902;52.920;6.536;2022-10-16T15:13:03;18.90;87.90
61016;DHT22;46902;52.920;6.536;2022-10-16T15:15:33;18.70;89.00
61016;DHT22;46902;52.920;6.536;2022-10-16T15:17:59;18.70;89.90
61016;DHT22;46902;52.920;6.536;2022-10-16T15:20:32;18.60;90.60
61016;DHT22;46902;52.920;6.536;2022-10-16T15:23:01;18.60;90.80
61016;DHT22;46902;52.920;6.536;2022-10-16T15:25:29;18.50;91.10
61016;DHT22;46902;52.920;6.536;2022-10-16T15:27:55;18.40;91.00
61016;DHT22;46902;52.920;6.536;2022-10-16T15:30:21;18.30;91.50
61016;DHT22;46902;52.920;6.536;2022-10-16T15:32:46;18.30;91.80
61016;DHT22;46902;52.920;6.536;2022-10-16T15:35:12;18.20;92.10
61016;DHT22;46902;52.920;6.536;2022-10-16T15:37:37;18.20;92.70
61016;DHT22;46902;52.920;6.536;2022-10-16T15:40:03;18.10;93.10
61016;DHT22;46902;52.920;6.536;2022-10-16T15:42:29;18.00;93.70
61016;DHT22;46902;52.920;6.536;2022-10-16T15:44:54;17.90;94.30
61016;DHT22;46902;52.920;6.536;2022-10-16T15:47:20;17.80;94.80
61016;DHT22;46902;52.920;6.536;2022-10-16T15:49:45;17.70;95.20
61016;DHT22;46902;52.920;6.536;2022-10-16T15:52:11;17.60;95.30
61016;DHT22;46902;52.920;6.536;2022-10-16T15:54:37;17.60;95.80
61016;DHT22;46902;52.920;6.536;2022-10-16T15:57:02;17.50;96.30
61016;DHT22;46902;52.920;6.536;2022-10-16T15:59:28;17.40;96.50
61016;DHT22;46902;52.920;6.536;2022-10-16T16:01:54;17.30;96.80
61016;DHT22;46902;52.920;6.536;2022-10-16T16:04:19;17.20;97.40
61016;DHT22;46902;52.920;6.536;2022-10-16T16:06:45;17.20;98.20
61016;DHT22;46902;52.920;6.536;2022-10-16T16:09:12;17.00;98.80
61016;DHT22;46902;52.920;6.536;2022-10-16T16:11:39;17.00;99.30
61016;DHT22;46902;52.920;6.536;2022-10-16T16:14:11;16.90;99.80
61016;DHT22;46902;52.920;6.536;2022-10-16T16:16:38;16.90;99.90
61016;DHT22;46902;52.920;6.536;2022-10-16T16:19:05;16.80;99.90
61016;DHT22;46902;52.920;6.536;2022-10-16T16:21:31;16.80;99.90
61016;DHT22;46902;52.920;6.536;2022-10-16T16:23:57;16.60;99.90
61016;DHT22;46902;52.920;6.536;2022-10-16T16:26:28;16.60;99.90
61016;DHT22;46902;52.920;6.536;2022-10-16T16:28:58;16.60;99.90
61016;DHT22;46902;52.920;6.536;2022-10-16T16:31:25;16.50;99.90
61016;DHT22;46902;52.920;6.536;2022-10-16T16:33:50;16.40;99.90
61016;DHT22;46902;52.920;6.536;2022-10-16T16:36:17;16.30;99.90
61016;DHT22;46902;52.920;6.536;2022-10-16T16:38:44;16.20;99.90
61016;DHT22;46902;52.920;6.536;2022-10-16T16:41:21;16.20;99.90
61016;DHT22;46902;52.920;6.536;2022-10-16T16:43:47;16.10;99.90
61016;DHT22;46902;52.920;6.536;2022-10-16T16:46:14;16.00;99.90
61016;DHT22;46902;52.920;6.536;2022-10-16T16:48:40;16.00;99.90
61016;DHT22;46902;52.920;6.536;2022-10-16T16:51:08;15.90;99.90
61016;DHT22;46902;52.920;6.536;2022-10-16T16:53:35;15.90;99.90
61016;DHT22;46902;52.920;6.536;2022-10-16T16:56:05;15.80;99.90
61016;DHT22;46902;52.920;6.536;2022-10-16T16:58:32;15.70;99.90
61016;DHT22;46902;52.920;6.536;2022-10-16T17:00:58;15.70;99.90
61016;DHT22;46902;52.920;6.536;2022-10-16T17:03:33;15.60;99.90
61016;DHT22;46902;52.920;6.536;2022-10-16T17:06:02;15.60;99.90